sensor_id;sensor_type;location;lat;lon;timestamp;temperature;humidity
14357;DHT22;7262;48.764;9.166;2022-11-04T00:01:32;10.60;99.90
14357;DHT22;7262;48.764;9.166;2022-11-04T00:03:59;10.60;99.90
14357;DHT22;7262;48.764;9.166;2022-11-04T00:06:26;10.60;99.90
14357;DHT22;7262;48.764;9.166;2022-11-04T00:08:53;10.60;99.90
14357;DHT22;7262;48.764;9.166;2022-11-04T00:11:20;10.60;99.90
14357;DHT22;7262;48.764;9.166;2022-11-04T00:14:07;10.60;99.90
14357;DHT22;7262;48.764;9.166;2022-11-04T00:16:34;10.50;99.90
14357;DHT22;7262;48.764;9.166;2022-11-04T00:19:18;10.60;99.90
14357;DHT22;7262;48.764;9.166;2022-11-04T00:21:45;10.60;99.90
14357;DHT22;7262;48.764;9.166;2022-11-04T00:24:30;10.50;99.90
14357;DHT22;7262;48.764;9.166;2022-11-04T00:27:15;10.50;99.90
14357;DHT22;7262;48.764;9.166;2022-11-04T00:30:01;10.50;99.90
14357;DHT22;7262;48.764;9.166;2022-11-04T00:32:28;10.50;99.90
14357;DHT22;7262;48.764;9.166;2022-11-04T00:35:17;10.50;99.90
14357;DHT22;7262;48.764;9.166;2022-11-04T00:37:45;10.50;99.90
14357;DHT22;7262;48.764;9.166;2022-11-04T00:40:12;10.50;99.90
14357;DHT22;7262;48.764;9.166;2022-11-04T00:42:40;10.40;99.90
14357;DHT22;7262;48.764;9.166;2022-11-04T00:45:10;10.40;99.90
14357;DHT22;7262;48.764;9.166;2022-11-04T00:47:37;10.50;99.90
14357;DHT22;7262;48.764;9.166;2022-11-04T00:50:04;10.50;99.90
14357;DHT22;7262;48.764;9.166;2022-11-04T00:52:31;10.50;99.90
14357;DHT22;7262;48.764;9.166;2022-11-04T00:54:58;10.50;99.90
14357;DHT22;7262;48.764;9.166;2022-11-04T00:57:25;10.50;99.90
14357;DHT22;7262;48.764;9.166;2022-11-04T00:59:51;10.50;99.90
14357;DHT22;7262;48.764;9.166;2022-11-04T01:02:20;10.50;99.90
14357;DHT22;7262;48.764;9.166;2022-11-04T01:04:46;10.50;99.90
14357;DHT22;7262;48.764;9.166;2022-11-04T01:07:13;10.50;99.90
14357;DHT22;7262;48.764;9.166;2022-11-04T01:09:40;10.50;99.90
14357;DHT22;7262;48.764;9.166;2022-11-04T01:12:07;10.50;99.90
14357;DHT22;7262;48.764;9.166;2022-11-04T01:14:33;10.60;99.90
14357;DHT22;7262;48.764;9.166;2022-11-04T01:17:00;10.60;99.90
14357;DHT22;7262;48.764;9.166;2022-11-04T01:19:28;10.60;99.90
14357;DHT22;7262;48.764;9.166;2022-11-04T01:21:55;10.60;99.90
14357;DHT22;7262;48.764;9.166;2022-11-04T01:24:22;10.60;99.90
14357;DHT22;7262;48.764;9.166;2022-11-04T01:26:49;10.50;99.90
14357;DHT22;7262;48.764;9.166;2022-11-04T01:29:15;10.60;99.90
14357;DHT22;7262;48.764;9.166;2022-11-04T01:31:42;10.60;99.90
14357;DHT22;7262;48.764;9.166;2022-11-04T01:34:09;10.60;99.90
14357;DHT22;7262;48.764;9.166;2022-11-04T01:36:37;10.60;99.90
14357;DHT22;7262;48.764;9.166;2022-11-04T01:39:04;10.60;99.90
14357;DHT22;7262;48.764;9.166;2022-11-04T01:41:32;10.60;99.90
14357;DHT22;7262;48.764;9.166;2022-11-04T01:44:00;10.60;99.90
14357;DHT22;7262;48.764;9.166;2022-11-04T01:46:29;10.60;99.90
14357;DHT22;7262;48.764;9.166;2022-11-04T01:49:00;10.60;99.90
14357;DHT22;7262;48.764;9.166;2022-11-04T01:51:28;10.60;99.90
14357;DHT22;7262;48.764;9.166;2022-11-04T01:53:59;10.50;99.90
14357;DHT22;7262;48.764;9.166;2022-11-04T01:56:27;10.50;99.90
14357;DHT22;7262;48.764;9.166;2022-11-04T01:58:54;10.50;99.90
14357;DHT22;7262;48.764;9.166;2022-11-04T02:01:23;10.60;99.90
14357;DHT22;7262;48.764;9.166;2022-11-04T02:03:51;10.50;99.90
14357;DHT22;7262;48.764;9.166;2022-11-04T02:06:18;10.50;99.90
14357;DHT22;7262;48.764;9.166;2022-11-04T02:08:46;10.40;99.90
14357;DHT22;7262;48.764;9.166;2022-11-04T02:11:15;10.40;99.90
14357;DHT22;7262;48.764;9.166;2022-11-04T02:13:55;10.40;99.90
14357;DHT22;7262;48.764;9.166;2022-11-04T02:16:23;10.40;99.90
14357;DHT22;7262;48.764;9.166;2022-11-04T02:18:53;10.30;99.90
14357;DHT22;7262;48.764;9.166;2022-11-04T02:21:45;10.30;99.90
14357;DHT22;7262;48.764;9.166;2022-11-04T02:27:14;10.30;99.90
14357;DHT22;7262;48.764;9.166;2022-11-04T02:29:46;10.30;99.90
14357;DHT22;7262;48.764;9.166;2022-11-04T02:32:17;10.30;99.90
14357;DHT22;7262;48.764;9.166;2022-11-04T02:34:49;10.30;99.90
14357;DHT22;7262;48.764;9.166;2022-11-04T02:37:19;10.30;99.90
14357;DHT22;7262;48.764;9.166;2022-11-04T02:39:50;10.30;99.90
14357;DHT22;7262;48.764;9.166;2022-11-04T02:42:21;10.20;99.90
14357;DHT22;7262;48.764;9.166;2022-11-04T02:44:54;10.20;99.90
14357;DHT22;7262;48.764;9.166;2022-11-04T02:47:24;10.10;99.90
14357;DHT22;7262;48.764;9.166;2022-11-04T02:49:53;10.00;99.90
14357;DHT22;7262;48.764;9.166;2022-11-04T02:52:22;10.00;99.90
14357;DHT22;7262;48.764;9.166;2022-11-04T02:54:53;10.00;99.90
14357;DHT22;7262;48.764;9.166;2022-11-04T02:57:23;10.00;99.90
14357;DHT22;7262;48.764;9.166;2022-11-04T02:59:53;10.00;99.90
14357;DHT22;7262;48.764;9.166;2022-11-04T03:02:24;10.00;99.90
14357;DHT22;7262;48.764;9.166;2022-11-04T03:04:52;10.00;99.90
14357;DHT22;7262;48.764;9.166;2022-11-04T03:07:21;9.90;99.90
14357;DHT22;7262;48.764;9.166;2022-11-04T03:09:50;10.00;99.90
14357;DHT22;7262;48.764;9.166;2022-11-04T03:12:19;10.00;99.90
14357;DHT22;7262;48.764;9.166;2022-11-04T03:14:47;9.90;99.90
14357;DHT22;7262;48.764;9.166;2022-11-04T03:17:18;9.90;99.90
14357;DHT22;7262;48.764;9.166;2022-11-04T03:19:48;9.90;99.90
14357;DHT22;7262;48.764;9.166;2022-11-04T03:22:19;9.90;99.90
14357;DHT22;7262;48.764;9.166;2022-11-04T03:24:46;9.80;99.90
14357;DHT22;7262;48.764;9.166;2022-11-04T03:27:19;9.80;99.90
14357;DHT22;7262;48.764;9.166;2022-11-04T03:29:49;9.80;99.90
14357;DHT22;7262;48.764;9.166;2022-11-04T03:32:22;9.80;99.90
14357;DHT22;7262;48.764;9.166;2022-11-04T03:34:51;9.90;99.90
14357;DHT22;7262;48.764;9.166;2022-11-04T03:37:18;9.80;99.90
14357;DHT22;7262;48.764;9.166;2022-11-04T03:39:45;9.80;99.90
14357;DHT22;7262;48.764;9.166;2022-11-04T03:42:12;9.80;99.90
14357;DHT22;7262;48.764;9.166;2022-11-04T03:44:49;9.70;99.90
14357;DHT22;7262;48.764;9.166;2022-11-04T03:47:17;9.70;99.90
14357;DHT22;7262;48.764;9.166;2022-11-04T03:49:46;9.60;99.90
14357;DHT22;7262;48.764;9.166;2022-11-04T03:52:13;9.60;99.90
14357;DHT22;7262;48.764;9.166;2022-11-04T03:54:41;9.60;99.90
14357;DHT22;7262;48.764;9.166;2022-11-04T03:57:23;9.60;99.90
14357;DHT22;7262;48.764;9.166;2022-11-04T03:59:58;9.60;99.90
14357;DHT22;7262;48.764;9.166;2022-11-04T04:02:30;9.60;99.90
14357;DHT22;7262;48.764;9.166;2022-11-04T04:05:01;9.60;99.90
14357;DHT22;7262;48.764;9.166;2022-11-04T04:07:30;9.50;99.90
14357;DHT22;7262;48.764;9.166;2022-11-04T04:10:00;9.50;99.90
14357;DHT22;7262;48.764;9.166;2022-11-04T04:12:49;9.40;99.90
14357;DHT22;7262;48.764;9.166;2022-11-04T04:15:17;9.40;99.90
14357;DHT22;7262;48.764;9.166;2022-11-04T04:17:45;9.40;99.90
14357;DHT22;7262;48.764;9.166;2022-11-04T04:20:18;9.40;99.90
14357;DHT22;7262;48.764;9.166;2022-11-04T04:22:47;9.40;99.90
14357;DHT22;7262;48.764;9.166;2022-11-04T04:25:15;9.30;99.90
14357;DHT22;7262;48.764;9.166;2022-11-04T04:27:59;9.30;99.90
14357;DHT22;7262;48.764;9.166;2022-11-04T04:30:27;9.20;99.90
14357;DHT22;7262;48.764;9.166;2022-11-04T04:32:55;9.20;99.90
14357;DHT22;7262;48.764;9.166;2022-11-04T04:35:28;9.20;99.90
14357;DHT22;7262;48.764;9.166;2022-11-04T04:38:14;9.10;99.90
14357;DHT22;7262;48.764;9.166;2022-11-04T04:41:01;9.10;99.90
14357;DHT22;7262;48.764;9.166;2022-11-04T04:43:46;9.10;99.90
14357;DHT22;7262;48.764;9.166;2022-11-04T04:46:31;9.10;99.90
14357;DHT22;7262;48.764;9.166;2022-11-04T04:49:02;9.10;99.90
14357;DHT22;7262;48.764;9.166;2022-11-04T04:51:30;9.10;99.90
14357;DHT22;7262;48.764;9.166;2022-11-04T04:53:57;9.00;99.90
14357;DHT22;7262;48.764;9.166;2022-11-04T04:56:24;9.00;99.90
14357;DHT22;7262;48.764;9.166;2022-11-04T04:58:51;9.00;99.90
14357;DHT22;7262;48.764;9.166;2022-11-04T05:01:18;9.00;99.90
14357;DHT22;7262;48.764;9.166;2022-11-04T05:03:44;9.00;99.90
14357;DHT22;7262;48.764;9.166;2022-11-04T05:06:11;8.90;99.90
14357;DHT22;7262;48.764;9.166;2022-11-04T05:08:39;8.90;99.90
14357;DHT22;7262;48.764;9.166;2022-11-04T05:11:06;8.90;99.90
14357;DHT22;7262;48.764;9.166;2022-11-04T05:13:33;8.80;99.90
14357;DHT22;7262;48.764;9.166;2022-11-04T05:16:02;8.80;99.90
14357;DHT22;7262;48.764;9.166;2022-11-04T05:18:29;8.80;99.90
14357;DHT22;7262;48.764;9.166;2022-11-04T05:20:55;8.80;99.90
14357;DHT22;7262;48.764;9.166;2022-11-04T05:23:22;8.80;99.90
14357;DHT22;7262;48.764;9.166;2022-11-04T05:25:50;8.70;99.90
14357;DHT22;7262;48.764;9.166;2022-11-04T05:28:17;8.70;99.90
14357;DHT22;7262;48.764;9.166;2022-11-04T05:30:44;8.70;99.90
14357;DHT22;7262;48.764;9.166;2022-11-04T05:33:10;8.60;99.90
14357;DHT22;7262;48.764;9.166;2022-11-04T05:35:37;8.60;99.90
14357;DHT22;7262;48.764;9.166;2022-11-04T05:38:04;8.60;99.90
14357;DHT22;7262;48.764;9.166;2022-11-04T05:40:31;8.60;99.90
14357;DHT22;7262;48.764;9.166;2022-11-04T05:42:59;8.60;99.90
14357;DHT22;7262;48.764;9.166;2022-11-04T05:45:26;8.60;99.90
14357;DHT22;7262;48.764;9.166;2022-11-04T05:47:57;8.60;99.90
14357;DHT22;7262;48.764;9.166;2022-11-04T05:50:24;8.60;99.90
14357;DHT22;7262;48.764;9.166;2022-11-04T05:52:50;8.60;99.90
14357;DHT22;7262;48.764;9.166;2022-11-04T05:55:17;8.60;99.90
14357;DHT22;7262;48.764;9.166;2022-11-04T05:57:44;8.60;99.90
14357;DHT22;7262;48.764;9.166;2022-11-04T06:00:13;8.70;99.90
14357;DHT22;7262;48.764;9.166;2022-11-04T06:02:40;8.60;99.90
14357;DHT22;7262;48.764;9.166;2022-11-04T06:05:07;8.60;99.90
14357;DHT22;7262;48.764;9.166;2022-11-04T06:07:34;8.50;99.90
14357;DHT22;7262;48.764;9.166;2022-11-04T06:10:03;8.50;99.90
14357;DHT22;7262;48.764;9.166;2022-11-04T06:12:29;8.50;99.90
14357;DHT22;7262;48.764;9.166;2022-11-04T06:14:56;8.50;99.90
14357;DHT22;7262;48.764;9.166;2022-11-04T06:17:25;8.40;99.90
14357;DHT22;7262;48.764;9.166;2022-11-04T06:19:52;8.50;99.90
14357;DHT22;7262;48.764;9.166;2022-11-04T06:22:18;8.40;99.90
14357;DHT22;7262;48.764;9.166;2022-11-04T06:24:45;8.40;99.90
14357;DHT22;7262;48.764;9.166;2022-11-04T06:27:12;8.40;99.90
14357;DHT22;7262;48.764;9.166;2022-11-04T06:29:39;8.40;99.90
14357;DHT22;7262;48.764;9.166;2022-11-04T06:32:06;8.40;99.90
14357;DHT22;7262;48.764;9.166;2022-11-04T06:34:36;8.40;99.90
14357;DHT22;7262;48.764;9.166;2022-11-04T06:37:03;8.40;99.90
14357;DHT22;7262;48.764;9.166;2022-11-04T06:39:30;8.40;99.90
14357;DHT22;7262;48.764;9.166;2022-11-04T06:41:59;8.40;99.90
14357;DHT22;7262;48.764;9.166;2022-11-04T06:44:26;8.50;99.90
14357;DHT22;7262;48.764;9.166;2022-11-04T06:46:53;8.50;99.90
14357;DHT22;7262;48.764;9.166;2022-11-04T06:49:20;8.40;99.90
14357;DHT22;7262;48.764;9.166;2022-11-04T06:51:49;8.50;99.90
14357;DHT22;7262;48.764;9.166;2022-11-04T06:54:16;8.50;99.90
14357;DHT22;7262;48.764;9.166;2022-11-04T06:56:44;8.50;99.90
14357;DHT22;7262;48.764;9.166;2022-11-04T06:59:13;8.50;99.90
14357;DHT22;7262;48.764;9.166;2022-11-04T07:01:41;8.50;99.90
14357;DHT22;7262;48.764;9.166;2022-11-04T07:04:08;8.50;99.90
14357;DHT22;7262;48.764;9.166;2022-11-04T07:06:35;8.50;99.90
14357;DHT22;7262;48.764;9.166;2022-11-04T07:09:03;8.60;99.90
14357;DHT22;7262;48.764;9.166;2022-11-04T07:11:31;8.60;99.90
14357;DHT22;7262;48.764;9.166;2022-11-04T07:13:58;8.70;99.90
14357;DHT22;7262;48.764;9.166;2022-11-04T07:16:25;8.70;99.90
14357;DHT22;7262;48.764;9.166;2022-11-04T07:18:52;8.70;99.90
14357;DHT22;7262;48.764;9.166;2022-11-04T07:21:19;8.70;99.90
14357;DHT22;7262;48.764;9.166;2022-11-04T07:23:47;8.80;99.90
14357;DHT22;7262;48.764;9.166;2022-11-04T07:26:16;8.80;99.90
14357;DHT22;7262;48.764;9.166;2022-11-04T07:28:42;8.90;99.90
14357;DHT22;7262;48.764;9.166;2022-11-04T07:31:10;8.90;99.90
14357;DHT22;7262;48.764;9.166;2022-11-04T07:33:37;8.90;99.90
14357;DHT22;7262;48.764;9.166;2022-11-04T07:36:05;8.90;99.90
14357;DHT22;7262;48.764;9.166;2022-11-04T07:38:32;9.00;99.90
14357;DHT22;7262;48.764;9.166;2022-11-04T07:40:59;8.90;99.90
14357;DHT22;7262;48.764;9.166;2022-11-04T07:43:28;8.90;99.90
14357;DHT22;7262;48.764;9.166;2022-11-04T07:45:59;9.00;99.90
14357;DHT22;7262;48.764;9.166;2022-11-04T07:48:26;9.10;99.90
14357;DHT22;7262;48.764;9.166;2022-11-04T07:50:53;9.20;99.90
14357;DHT22;7262;48.764;9.166;2022-11-04T07:53:20;9.20;99.90
14357;DHT22;7262;48.764;9.166;2022-11-04T07:55:47;9.30;99.90
14357;DHT22;7262;48.764;9.166;2022-11-04T07:58:15;9.40;99.90
14357;DHT22;7262;48.764;9.166;2022-11-04T08:00:45;9.50;99.90
14357;DHT22;7262;48.764;9.166;2022-11-04T08:03:12;9.60;99.90
14357;DHT22;7262;48.764;9.166;2022-11-04T08:05:39;9.70;99.90
14357;DHT22;7262;48.764;9.166;2022-11-04T08:08:06;9.70;99.90
14357;DHT22;7262;48.764;9.166;2022-11-04T08:10:35;9.80;99.90
14357;DHT22;7262;48.764;9.166;2022-11-04T08:13:02;9.80;99.90
14357;DHT22;7262;48.764;9.166;2022-11-04T08:15:29;9.90;99.90
14357;DHT22;7262;48.764;9.166;2022-11-04T08:17:57;9.90;99.90
14357;DHT22;7262;48.764;9.166;2022-11-04T08:20:23;10.00;99.90
14357;DHT22;7262;48.764;9.166;2022-11-04T08:22:50;10.10;99.90
14357;DHT22;7262;48.764;9.166;2022-11-04T08:25:17;10.20;99.90
14357;DHT22;7262;48.764;9.166;2022-11-04T08:27:44;10.40;99.90
14357;DHT22;7262;48.764;9.166;2022-11-04T08:30:11;10.50;99.90
14357;DHT22;7262;48.764;9.166;2022-11-04T08:32:38;10.50;99.90
14357;DHT22;7262;48.764;9.166;2022-11-04T08:35:06;10.60;99.90
14357;DHT22;7262;48.764;9.166;2022-11-04T08:37:34;10.80;99.90
14357;DHT22;7262;48.764;9.166;2022-11-04T08:40:01;11.00;99.90
14357;DHT22;7262;48.764;9.166;2022-11-04T08:42:28;11.10;99.90
14357;DHT22;7262;48.764;9.166;2022-11-04T08:44:54;11.20;99.90
14357;DHT22;7262;48.764;9.166;2022-11-04T08:47:21;11.40;99.90
14357;DHT22;7262;48.764;9.166;2022-11-04T08:49:48;11.40;99.90
14357;DHT22;7262;48.764;9.166;2022-11-04T08:52:17;11.60;99.90
14357;DHT22;7262;48.764;9.166;2022-11-04T08:54:44;11.70;99.90
14357;DHT22;7262;48.764;9.166;2022-11-04T08:57:10;11.80;99.90
14357;DHT22;7262;48.764;9.166;2022-11-04T08:59:37;11.70;99.90
14357;DHT22;7262;48.764;9.166;2022-11-04T09:02:18;11.80;99.90
14357;DHT22;7262;48.764;9.166;2022-11-04T09:04:45;11.70;99.90
14357;DHT22;7262;48.764;9.166;2022-11-04T09:07:12;11.50;99.90
14357;DHT22;7262;48.764;9.166;2022-11-04T09:09:41;11.50;99.90
14357;DHT22;7262;48.764;9.166;2022-11-04T09:12:10;11.50;99.90
14357;DHT22;7262;48.764;9.166;2022-11-04T09:14:44;11.50;99.90
14357;DHT22;7262;48.764;9.166;2022-11-04T09:17:12;11.40;99.90
14357;DHT22;7262;48.764;9.166;2022-11-04T09:19:39;11.50;99.90
14357;DHT22;7262;48.764;9.166;2022-11-04T09:22:06;11.40;99.90
14357;DHT22;7262;48.764;9.166;2022-11-04T09:24:33;11.40;99.90
14357;DHT22;7262;48.764;9.166;2022-11-04T09:27:01;11.50;99.90
14357;DHT22;7262;48.764;9.166;2022-11-04T09:29:30;11.60;99.90
14357;DHT22;7262;48.764;9.166;2022-11-04T09:31:58;11.60;99.90
14357;DHT22;7262;48.764;9.166;2022-11-04T09:34:25;11.60;99.90
14357;DHT22;7262;48.764;9.166;2022-11-04T09:36:53;11.60;99.90
14357;DHT22;7262;48.764;9.166;2022-11-04T09:39:20;11.70;99.90
14357;DHT22;7262;48.764;9.166;2022-11-04T09:41:54;11.80;99.90
14357;DHT22;7262;48.764;9.166;2022-11-04T09:44:25;11.80;99.90
14357;DHT22;7262;48.764;9.166;2022-11-04T09:46:55;11.90;99.90
14357;DHT22;7262;48.764;9.166;2022-11-04T09:49:25;12.00;99.90
14357;DHT22;7262;48.764;9.166;2022-11-04T09:51:52;11.90;99.90
14357;DHT22;7262;48.764;9.166;2022-11-04T09:54:21;12.00;99.90
14357;DHT22;7262;48.764;9.166;2022-11-04T09:56:48;12.10;99.90
14357;DHT22;7262;48.764;9.166;2022-11-04T09:59:19;12.20;99.90
14357;DHT22;7262;48.764;9.166;2022-11-04T10:01:49;12.30;99.90
14357;DHT22;7262;48.764;9.166;2022-11-04T10:04:22;12.40;99.90
14357;DHT22;7262;48.764;9.166;2022-11-04T10:06:56;12.40;99.90
14357;DHT22;7262;48.764;9.166;2022-11-04T10:09:32;12.50;99.90
14357;DHT22;7262;48.764;9.166;2022-11-04T10:12:05;12.90;99.90
14357;DHT22;7262;48.764;9.166;2022-11-04T10:14:39;13.00;99.90
14357;DHT22;7262;48.764;9.166;2022-11-04T10:17:16;12.90;99.90
14357;DHT22;7262;48.764;9.166;2022-11-04T10:19:49;13.00;99.90
14357;DHT22;7262;48.764;9.166;2022-11-04T10:22:24;13.20;99.90
14357;DHT22;7262;48.764;9.166;2022-11-04T10:24:55;13.30;99.90
14357;DHT22;7262;48.764;9.166;2022-11-04T10:27:24;13.60;99.90
14357;DHT22;7262;48.764;9.166;2022-11-04T10:29:53;13.60;99.90
14357;DHT22;7262;48.764;9.166;2022-11-04T10:32:23;13.50;99.90
14357;DHT22;7262;48.764;9.166;2022-11-04T10:34:55;13.50;99.90
14357;DHT22;7262;48.764;9.166;2022-11-04T10:37:26;13.40;99.90
14357;DHT22;7262;48.764;9.166;2022-11-04T10:39:57;13.30;99.90
14357;DHT22;7262;48.764;9.166;2022-11-04T10:42:26;13.20;99.90
14357;DHT22;7262;48.764;9.166;2022-11-04T10:44:53;13.10;99.90
14357;DHT22;7262;48.764;9.166;2022-11-04T10:47:22;13.20;99.90
14357;DHT22;7262;48.764;9.166;2022-11-04T10:49:58;13.50;99.90
14357;DHT22;7262;48.764;9.166;2022-11-04T10:52:27;13.70;99.90
14357;DHT22;7262;48.764;9.166;2022-11-04T10:54:54;14.00;99.90
14357;DHT22;7262;48.764;9.166;2022-11-04T10:57:21;14.20;99.90
14357;DHT22;7262;48.764;9.166;2022-11-04T10:59:51;14.20;99.90
14357;DHT22;7262;48.764;9.166;2022-11-04T11:02:18;14.30;99.90
14357;DHT22;7262;48.764;9.166;2022-11-04T11:05:12;14.10;99.90
14357;DHT22;7262;48.764;9.166;2022-11-04T11:07:40;14.00;99.90
14357;DHT22;7262;48.764;9.166;2022-11-04T11:10:14;13.80;99.90
14357;DHT22;7262;48.764;9.166;2022-11-04T11:12:42;13.60;99.90
14357;DHT22;7262;48.764;9.166;2022-11-04T11:15:35;13.60;99.90
14357;DHT22;7262;48.764;9.166;2022-11-04T11:18:11;13.40;99.90
14357;DHT22;7262;48.764;9.166;2022-11-04T11:20:44;13.40;99.90
14357;DHT22;7262;48.764;9.166;2022-11-04T11:23:33;13.30;99.90
14357;DHT22;7262;48.764;9.166;2022-11-04T11:26:00;13.10;99.90
14357;DHT22;7262;48.764;9.166;2022-11-04T11:28:28;13.00;99.90
14357;DHT22;7262;48.764;9.166;2022-11-04T11:30:55;13.00;99.90
14357;DHT22;7262;48.764;9.166;2022-11-04T11:33:23;13.10;99.90
14357;DHT22;7262;48.764;9.166;2022-11-04T11:35:54;13.00;99.90
14357;DHT22;7262;48.764;9.166;2022-11-04T11:38:22;13.10;99.90
14357;DHT22;7262;48.764;9.166;2022-11-04T11:40:50;13.10;99.90
14357;DHT22;7262;48.764;9.166;2022-11-04T11:43:22;13.00;99.90
14357;DHT22;7262;48.764;9.166;2022-11-04T11:45:50;13.20;99.90
14357;DHT22;7262;48.764;9.166;2022-11-04T11:48:26;13.30;99.90
14357;DHT22;7262;48.764;9.166;2022-11-04T11:50:56;13.20;99.90
14357;DHT22;7262;48.764;9.166;2022-11-04T11:53:25;13.40;99.90
14357;DHT22;7262;48.764;9.166;2022-11-04T11:55:57;13.40;99.90
14357;DHT22;7262;48.764;9.166;2022-11-04T11:58:27;13.70;99.90
14357;DHT22;7262;48.764;9.166;2022-11-04T12:00:56;13.80;99.90
14357;DHT22;7262;48.764;9.166;2022-11-04T12:03:27;14.00;99.90
14357;DHT22;7262;48.764;9.166;2022-11-04T12:06:11;14.10;99.90
14357;DHT22;7262;48.764;9.166;2022-11-04T12:08:48;14.20;99.90
14357;DHT22;7262;48.764;9.166;2022-11-04T12:11:29;14.40;99.90
14357;DHT22;7262;48.764;9.166;2022-11-04T12:14:00;14.60;99.90
14357;DHT22;7262;48.764;9.166;2022-11-04T12:16:31;14.60;99.90
14357;DHT22;7262;48.764;9.166;2022-11-04T12:19:03;14.60;99.90
14357;DHT22;7262;48.764;9.166;2022-11-04T12:21:34;14.50;99.90
14357;DHT22;7262;48.764;9.166;2022-11-04T12:24:07;14.40;99.90
14357;DHT22;7262;48.764;9.166;2022-11-04T12:26:40;14.10;99.90
14357;DHT22;7262;48.764;9.166;2022-11-04T12:29:15;13.90;99.90
14357;DHT22;7262;48.764;9.166;2022-11-04T12:31:48;13.60;99.90
14357;DHT22;7262;48.764;9.166;2022-11-04T12:34:22;13.60;99.90
14357;DHT22;7262;48.764;9.166;2022-11-04T12:36:57;13.70;99.90
14357;DHT22;7262;48.764;9.166;2022-11-04T12:39:29;13.70;99.90
14357;DHT22;7262;48.764;9.166;2022-11-04T12:42:03;13.80;99.90
14357;DHT22;7262;48.764;9.166;2022-11-04T12:44:35;13.90;99.90
14357;DHT22;7262;48.764;9.166;2022-11-04T12:47:14;14.00;99.90
14357;DHT22;7262;48.764;9.166;2022-11-04T12:49:48;13.90;99.90
14357;DHT22;7262;48.764;9.166;2022-11-04T12:52:23;13.80;99.90
14357;DHT22;7262;48.764;9.166;2022-11-04T12:55:01;13.80;99.90
14357;DHT22;7262;48.764;9.166;2022-11-04T12:57:30;13.90;99.90
14357;DHT22;7262;48.764;9.166;2022-11-04T13:00:01;14.00;99.90
14357;DHT22;7262;48.764;9.166;2022-11-04T13:02:33;14.10;99.90
14357;DHT22;7262;48.764;9.166;2022-11-04T13:05:05;14.30;99.90
14357;DHT22;7262;48.764;9.166;2022-11-04T13:07:37;14.50;99.90
14357;DHT22;7262;48.764;9.166;2022-11-04T13:10:10;14.60;99.90
14357;DHT22;7262;48.764;9.166;2022-11-04T13:12:43;14.80;99.90
14357;DHT22;7262;48.764;9.166;2022-11-04T13:15:13;14.90;99.90
14357;DHT22;7262;48.764;9.166;2022-11-04T13:17:41;14.90;99.90
14357;DHT22;7262;48.764;9.166;2022-11-04T13:20:13;14.90;99.90
14357;DHT22;7262;48.764;9.166;2022-11-04T13:22:45;15.10;99.90
14357;DHT22;7262;48.764;9.166;2022-11-04T13:25:13;14.90;99.90
14357;DHT22;7262;48.764;9.166;2022-11-04T13:27:42;15.10;99.90
14357;DHT22;7262;48.764;9.166;2022-11-04T13:30:16;15.00;99.90
14357;DHT22;7262;48.764;9.166;2022-11-04T13:32:47;14.90;99.90
14357;DHT22;7262;48.764;9.166;2022-11-04T13:35:16;14.90;99.90
14357;DHT22;7262;48.764;9.166;2022-11-04T13:37:50;14.70;99.90
14357;DHT22;7262;48.764;9.166;2022-11-04T13:40:20;14.40;99.90
14357;DHT22;7262;48.764;9.166;2022-11-04T13:42:52;14.20;99.90
14357;DHT22;7262;48.764;9.166;2022-11-04T13:45:46;14.00;99.90
14357;DHT22;7262;48.764;9.166;2022-11-04T13:48:14;13.70;99.90
14357;DHT22;7262;48.764;9.166;2022-11-04T13:50:43;13.60;99.90
14357;DHT22;7262;48.764;9.166;2022-11-04T13:53:13;13.20;99.90
14357;DHT22;7262;48.764;9.166;2022-11-04T13:55:46;12.60;99.90
14357;DHT22;7262;48.764;9.166;2022-11-04T13:58:16;12.10;99.90
14357;DHT22;7262;48.764;9.166;2022-11-04T14:03:38;11.40;99.90
14357;DHT22;7262;48.764;9.166;2022-11-04T14:06:06;11.20;99.90
14357;DHT22;7262;48.764;9.166;2022-11-04T14:08:35;11.00;99.90
14357;DHT22;7262;48.764;9.166;2022-11-04T14:11:06;10.90;99.90
14357;DHT22;7262;48.764;9.166;2022-11-04T14:13:45;10.70;99.90
14357;DHT22;7262;48.764;9.166;2022-11-04T14:16:35;10.50;99.90
14357;DHT22;7262;48.764;9.166;2022-11-04T14:22:03;10.00;99.90
14357;DHT22;7262;48.764;9.166;2022-11-04T14:24:32;9.80;99.90
14357;DHT22;7262;48.764;9.166;2022-11-04T14:26:58;9.80;99.90
14357;DHT22;7262;48.764;9.166;2022-11-04T14:29:25;9.80;99.90
14357;DHT22;7262;48.764;9.166;2022-11-04T14:31:52;9.80;99.90
14357;DHT22;7262;48.764;9.166;2022-11-04T14:34:22;9.80;99.90
14357;DHT22;7262;48.764;9.166;2022-11-04T14:36:53;9.80;99.90
14357;DHT22;7262;48.764;9.166;2022-11-04T14:39:21;9.90;99.90
14357;DHT22;7262;48.764;9.166;2022-11-04T14:42:00;9.90;99.90
14357;DHT22;7262;48.764;9.166;2022-11-04T14:44:28;9.90;99.90
14357;DHT22;7262;48.764;9.166;2022-11-04T14:46:58;10.00;99.90
14357;DHT22;7262;48.764;9.166;2022-11-04T14:49:29;9.90;99.90
14357;DHT22;7262;48.764;9.166;2022-11-04T14:51:57;10.00;99.90
14357;DHT22;7262;48.764;9.166;2022-11-04T14:54:29;9.90;99.90
14357;DHT22;7262;48.764;9.166;2022-11-04T14:57:08;9.90;99.90
14357;DHT22;7262;48.764;9.166;2022-11-04T14:59:38;9.90;99.90
14357;DHT22;7262;48.764;9.166;2022-11-04T15:02:08;9.80;99.90
14357;DHT22;7262;48.764;9.166;2022-11-04T15:04:38;9.90;99.90
14357;DHT22;7262;48.764;9.166;2022-11-04T15:07:19;10.00;99.90
14357;DHT22;7262;48.764;9.166;2022-11-04T15:09:48;10.10;99.90
14357;DHT22;7262;48.764;9.166;2022-11-04T15:12:18;10.00;99.90
14357;DHT22;7262;48.764;9.166;2022-11-04T15:17:48;10.00;99.90
14357;DHT22;7262;48.764;9.166;2022-11-04T15:20:18;10.10;99.90
14357;DHT22;7262;48.764;9.166;2022-11-04T15:22:47;10.10;99.90
14357;DHT22;7262;48.764;9.166;2022-11-04T15:25:15;10.00;99.90
14357;DHT22;7262;48.764;9.166;2022-11-04T15:27:45;10.00;99.90
14357;DHT22;7262;48.764;9.166;2022-11-04T15:30:17;9.90;99.90
14357;DHT22;7262;48.764;9.166;2022-11-04T15:32:54;10.10;99.90
14357;DHT22;7262;48.764;9.166;2022-11-04T15:35:21;10.00;99.90
14357;DHT22;7262;48.764;9.166;2022-11-04T15:37:49;10.00;99.90
14357;DHT22;7262;48.764;9.166;2022-11-04T15:40:16;10.00;99.90
14357;DHT22;7262;48.764;9.166;2022-11-04T15:42:44;10.00;99.90
14357;DHT22;7262;48.764;9.166;2022-11-04T15:45:24;9.90;99.90
14357;DHT22;7262;48.764;9.166;2022-11-04T15:50:33;9.90;99.90
14357;DHT22;7262;48.764;9.166;2022-11-04T15:53:00;9.80;99.90
14357;DHT22;7262;48.764;9.166;2022-11-04T15:55:27;9.70;99.90
14357;DHT22;7262;48.764;9.166;2022-11-04T15:57:57;9.70;99.90
14357;DHT22;7262;48.764;9.166;2022-11-04T16:00:24;9.70;99.90
14357;DHT22;7262;48.764;9.166;2022-11-04T16:02:51;9.60;99.90
14357;DHT22;7262;48.764;9.166;2022-11-04T16:05:22;9.60;99.90
14357;DHT22;7262;48.764;9.166;2022-11-04T16:07:51;9.60;99.90
14357;DHT22;7262;48.764;9.166;2022-11-04T16:10:22;9.60;99.90
14357;DHT22;7262;48.764;9.166;2022-11-04T16:12:49;9.50;99.90
14357;DHT22;7262;48.764;9.166;2022-11-04T16:15:31;9.50;99.90
14357;DHT22;7262;48.764;9.166;2022-11-04T16:17:58;9.50;99.90
14357;DHT22;7262;48.764;9.166;2022-11-04T16:20:25;9.40;99.90
14357;DHT22;7262;48.764;9.166;2022-11-04T16:22:54;9.50;99.90
14357;DHT22;7262;48.764;9.166;2022-11-04T16:25:21;9.40;99.90